Time;durP1;ratioP1;P1;durP2;ratioP2;P2;SDS_P1;SDS_P2;PMS_P1;PMS_P2;Temp;Humidity;BMP_temperature;BMP_pressure;BME280_temperature;BME280_humidity;BME280_pressure;Samples;Min_cycle;Max_cycle;Signal;HPM_P1;HPM_P2
2023/12/16 00:00:47;;;;;;;;;;;;;;;20.23;33.66;97716.56;10455469;28;2835;-51
2023/12/16 00:05:48;;;;;;;;;;;;;;;20.19;33.72;97718.03;10460005;28;2894;-51
2023/12/16 00:10:48;;;;;;;;;;;;;;;20.14;33.72;97731.03;10464520;28;3349;-51
2023/12/16 00:15:48;;;;;;;;;;;;;;;20.09;33.62;97738.78;10483528;28;2295;-50
2023/12/16 00:20:49;;;;;;;;;;;;;;;20.05;33.68;97748.16;10486296;28;2216;-52
2023/12/16 00:25:49;;;;;;;;;;;;;;;20.01;33.75;97741.72;10478960;28;2795;-53
2023/12/16 00:30:49;;;;;;;;;;;;;;;19.97;33.65;97739.78;10472989;28;1646;-51
2023/12/16 00:35:50;;;;;;;;;;;;;;;19.90;33.90;97749.56;10483093;28;1974;-49
2023/12/16 00:40:50;;;;;;;;;;;;;;;19.87;33.77;97735.00;10481071;28;1867;-51
2023/12/16 00:45:50;;;;;;;;;;;;;;;19.85;33.66;97746.78;10472093;28;5398;-49
2023/12/16 00:50:54;;;;;;;;;;;;;;;19.80;33.85;97758.00;10474991;28;1590;-52
2023/12/16 00:55:54;;;;;;;;;;;;;;;19.76;33.73;97756.00;10474266;28;1969;-52
2023/12/16 01:00:55;;;;;;;;;;;;;;;19.72;33.76;97757.47;10478732;28;1720;-50
2023/12/16 01:05:55;;;;;;;;;;;;;;;19.70;33.58;97756.91;10477927;28;2417;-50
2023/12/16 01:11:05;;;;;;;;;;;;;;;19.66;33.60;97774.16;10474893;28;1607;-50
2023/12/16 01:16:06;;;;;;;;;;;;;;;19.63;33.82;97777.19;10475846;28;1976;-51
2023/12/16 01:21:06;;;;;;;;;;;;;;;19.60;33.97;97765.28;10482115;28;1643;-52
2023/12/16 01:26:06;;;;;;;;;;;;;;;19.56;33.58;97769.38;10479029;28;1818;-52
2023/12/16 01:31:07;;;;;;;;;;;;;;;19.55;33.87;97772.22;10453695;28;2096;-51
2023/12/16 01:36:08;;;;;;;;;;;;;;;19.52;33.64;97768.19;10447284;28;2229;-50
2023/12/16 01:41:08;;;;;;;;;;;;;;;19.48;33.63;97767.03;10450598;28;4861;-51
2023/12/16 01:46:08;;;;;;;;;;;;;;;19.46;33.63;97775.16;10449988;28;2167;-48
2023/12/16 01:51:09;;;;;;;;;;;;;;;19.42;33.85;97776.59;10449070;28;2264;-52
2023/12/16 01:56:09;;;;;;;;;;;;;;;19.40;33.73;97775.22;10445396;28;2114;-48
2023/12/16 02:01:09;;;;;;;;;;;;;;;19.37;33.69;97776.44;10452478;28;1974;-52
2023/12/16 02:06:09;;;;;;;;;;;;;;;19.35;33.73;97786.38;10447383;28;2052;-49
2023/12/16 02:11:12;;;;;;;;;;;;;;;19.32;33.57;97789.41;10447461;28;2122;-51
2023/12/16 02:16:12;;;;;;;;;;;;;;;19.30;33.74;97794.09;10451185;28;2035;-52
2023/12/16 02:21:12;;;;;;;;;;;;;;;19.28;33.86;97798.75;10459360;28;2031;-53
2023/12/16 02:26:13;;;;;;;;;;;;;;;19.27;33.72;97791.06;10454589;28;2095;-51
2023/12/16 02:31:13;;;;;;;;;;;;;;;19.25;33.49;97793.91;10457883;28;2219;-51
2023/12/16 02:36:13;;;;;;;;;;;;;;;19.22;33.81;97796.19;10455197;28;1991;-50
2023/12/16 02:41:13;;;;;;;;;;;;;;;19.20;33.78;97806.94;10454500;28;4984;-50
2023/12/16 02:46:14;;;;;;;;;;;;;;;19.17;33.60;97804.72;10455339;28;2254;-49
2023/12/16 02:51:18;;;;;;;;;;;;;;;19.15;33.80;97803.31;10456180;28;2068;-50
2023/12/16 02:56:18;;;;;;;;;;;;;;;19.13;33.69;97774.63;10454851;28;2085;-52
2023/12/16 03:01:18;;;;;;;;;;;;;;;19.12;33.82;97783.53;10455909;28;2135;-47
2023/12/16 03:06:18;;;;;;;;;;;;;;;19.09;33.55;97799.72;10452488;28;2031;-48
2023/12/16 03:11:19;;;;;;;;;;;;;;;19.07;33.73;97793.88;10455435;28;2056;-51
2023/12/16 03:16:19;;;;;;;;;;;;;;;19.06;33.63;97802.78;10455352;28;2061;-52
2023/12/16 03:21:19;;;;;;;;;;;;;;;19.04;33.43;97807.44;10454249;28;2095;-50
2023/12/16 03:26:20;;;;;;;;;;;;;;;19.02;33.67;97798.97;10453352;28;2083;-49
2023/12/16 03:31:20;;;;;;;;;;;;;;;18.99;33.55;97815.16;10458997;28;2175;-51
2023/12/16 03:36:20;;;;;;;;;;;;;;;18.97;33.74;97827.72;10453239;28;2090;-50
2023/12/16 03:41:21;;;;;;;;;;;;;;;18.94;33.72;97825.50;10454241;28;4940;-50
2023/12/16 03:46:21;;;;;;;;;;;;;;;18.95;33.42;97827.13;10453852;28;2209;-47
2023/12/16 03:51:23;;;;;;;;;;;;;;;18.92;33.40;97817.03;10453465;28;2279;-49
2023/12/16 03:56:23;;;;;;;;;;;;;;;18.90;33.53;97813.81;10449684;28;2139;-51
2023/12/16 04:01:23;;;;;;;;;;;;;;;18.89;33.52;97814.03;10474882;28;1947;-51
2023/12/16 04:06:24;;;;;;;;;;;;;;;18.86;33.72;97815.25;10452367;28;2088;-51
2023/12/16 04:11:24;;;;;;;;;;;;;;;18.86;33.68;97831.03;10452213;28;2303;-50
2023/12/16 04:16:24;;;;;;;;;;;;;;;18.84;33.48;97827.81;10452926;28;2118;-50
2023/12/16 04:21:25;;;;;;;;;;;;;;;18.83;33.52;97830.66;10452380;28;2034;-49
2023/12/16 04:26:25;;;;;;;;;;;;;;;18.80;33.61;97831.06;10452201;28;2016;-52
2023/12/16 04:31:25;;;;;;;;;;;;;;;18.78;33.49;97826.03;10451968;28;2063;-47
2023/12/16 04:36:26;;;;;;;;;;;;;;;18.76;33.69;97830.69;10451892;28;2012;-49
2023/12/16 04:41:26;;;;;;;;;;;;;;;18.75;33.60;97821.22;10450185;28;4950;-50
2023/12/16 04:46:26;;;;;;;;;;;;;;;18.74;33.47;97813.53;10451736;28;2139;-49
2023/12/16 04:51:27;;;;;;;;;;;;;;;18.72;33.44;97813.75;10450755;28;1996;-49
2023/12/16 04:56:27;;;;;;;;;;;;;;;18.71;33.67;97820.03;10459775;28;2068;-49
2023/12/16 05:01:27;;;;;;;;;;;;;;;18.68;33.56;97846.69;10451027;28;2047;-49
2023/12/16 05:06:28;;;;;;;;;;;;;;;18.67;33.64;97855.59;10451918;28;2107;-48
2023/12/16 05:11:28;;;;;;;;;;;;;;;18.69;33.86;97869.34;10451937;28;2108;-51
2023/12/16 05:16:28;;;;;;;;;;;;;;;18.72;33.74;97850.53;10451812;28;2210;-47
2023/12/16 05:21:29;;;;;;;;;;;;;;;18.76;33.86;97866.66;10449846;28;1977;-51
2023/12/16 05:26:29;;;;;;;;;;;;;;;18.79;33.86;97861.81;10448561;28;2068;-49
2023/12/16 05:31:32;;;;;;;;;;;;;;;18.85;33.77;97875.91;10450564;28;2043;-48
2023/12/16 05:36:34;;;;;;;;;;;;;;;18.91;33.92;97867.19;10448859;28;2174;-52
2023/12/16 05:41:35;;;;;;;;;;;;;;;18.95;33.95;97861.28;10448927;28;4864;-51
2023/12/16 05:46:35;;;;;;;;;;;;;;;19.00;34.14;97850.16;10449705;28;2535;-50
2023/12/16 05:51:39;;;;;;;;;;;;;;;19.04;33.97;97836.34;10448693;28;2202;-52
2023/12/16 05:56:40;;;;;;;;;;;;;;;19.09;34.02;97841.78;10454754;28;2042;-47
2023/12/16 06:01:40;;;;;;;;;;;;;;;19.13;34.11;97847.41;10452311;28;2048;-52
2023/12/16 06:06:41;;;;;;;;;;;;;;;19.17;34.05;97849.41;10448520;28;2118;-51
2023/12/16 06:11:42;;;;;;;;;;;;;;;19.21;33.99;97849.78;10449296;28;2055;-50
2023/12/16 06:16:42;;;;;;;;;;;;;;;19.24;33.94;97850.16;10446461;28;2060;-52
2023/12/16 06:21:42;;;;;;;;;;;;;;;19.28;33.76;97853.16;10451543;28;2139;-50
2023/12/16 06:26:42;;;;;;;;;;;;;;;19.30;33.98;97857.19;10448437;28;1945;-52
2023/12/16 06:31:43;;;;;;;;;;;;;;;19.32;34.03;97870.94;10448120;28;2254;-51
2023/12/16 06:36:44;;;;;;;;;;;;;;;19.35;33.93;97860.00;10445840;28;2123;-48
2023/12/16 06:41:44;;;;;;;;;;;;;;;19.38;33.75;97861.41;10446928;28;4830;-49
2023/12/16 06:46:44;;;;;;;;;;;;;;;19.41;33.62;97880.19;10449635;28;2130;-53
2023/12/16 06:51:44;;;;;;;;;;;;;;;19.43;33.78;97880.78;10446446;28;2104;-49
2023/12/16 06:56:45;;;;;;;;;;;;;;;19.45;33.93;97880.56;10445743;28;2227;-51
2023/12/16 07:01:46;;;;;;;;;;;;;;;19.47;33.77;97866.16;10453573;28;2288;-52
2023/12/16 07:06:46;;;;;;;;;;;;;;;19.49;33.67;97863.34;10453237;28;2083;-53
2023/12/16 07:11:47;;;;;;;;;;;;;;;19.53;33.72;97868.97;10453804;28;2032;-50
2023/12/16 07:16:47;;;;;;;;;;;;;;;19.53;33.69;97890.81;10456254;28;2108;-50
2023/12/16 07:21:47;;;;;;;;;;;;;;;19.55;33.71;97898.50;10454800;28;2004;-49
2023/12/16 07:26:47;;;;;;;;;;;;;;;19.56;33.54;97906.16;10451612;28;2256;-49
2023/12/16 07:31:48;;;;;;;;;;;;;;;19.57;33.71;97904.34;10454965;28;1965;-53
2023/12/16 07:36:48;;;;;;;;;;;;;;;19.60;33.93;97903.94;10455752;28;2093;-49
2023/12/16 07:41:48;;;;;;;;;;;;;;;19.62;33.51;97900.03;10452689;28;4865;-49
2023/12/16 07:46:49;;;;;;;;;;;;;;;19.62;33.58;97894.00;10453975;28;2131;-49
2023/12/16 07:51:49;;;;;;;;;;;;;;;19.63;33.59;97879.81;10454429;28;2197;-50
2023/12/16 07:56:49;;;;;;;;;;;;;;;19.65;33.65;97886.47;10453576;28;1992;-51
2023/12/16 08:01:50;;;;;;;;;;;;;;;19.68;33.36;97890.50;10449856;28;2146;-52
2023/12/16 08:06:51;;;;;;;;;;;;;;;19.69;33.66;97910.50;10452754;28;2160;-51
2023/12/16 08:11:57;;;;;;;;;;;;;;;19.70;33.61;97922.66;10453535;28;2051;-50
2023/12/16 08:16:58;;;;;;;;;;;;;;;19.73;33.34;97922.22;10451358;28;2096;-51
2023/12/16 08:22:00;;;;;;;;;;;;;;;19.72;33.49;97900.34;10452444;28;2251;-47
2023/12/16 08:27:00;;;;;;;;;;;;;;;19.76;33.59;97898.13;10450399;28;2048;-52
2023/12/16 08:32:00;;;;;;;;;;;;;;;19.77;33.53;97912.88;10451257;28;1957;-51
2023/12/16 08:37:00;;;;;;;;;;;;;;;19.78;33.67;97922.38;10451995;28;1983;-51
2023/12/16 08:42:01;;;;;;;;;;;;;;;19.79;33.53;97926.63;10451328;28;4888;-51
2023/12/16 08:47:02;;;;;;;;;;;;;;;19.81;33.58;97929.84;10450483;28;2095;-49
2023/12/16 08:52:02;;;;;;;;;;;;;;;19.81;33.53;97938.53;10454045;28;2062;-52
2023/12/16 08:57:02;;;;;;;;;;;;;;;19.83;33.57;97939.13;10451308;28;2222;-50
2023/12/16 09:02:03;;;;;;;;;;;;;;;19.85;33.28;97963.41;10449758;28;2020;-51
2023/12/16 09:07:03;;;;;;;;;;;;;;;19.85;33.62;97973.13;10450167;28;2050;-47
2023/12/16 09:12:04;;;;;;;;;;;;;;;19.86;33.48;97975.56;10450723;28;2069;-50
2023/12/16 09:17:04;;;;;;;;;;;;;;;19.88;33.60;97967.44;10450546;28;2135;-53
2023/12/16 09:22:04;;;;;;;;;;;;;;;19.87;33.49;97971.91;10451850;28;2122;-53
2023/12/16 09:27:05;;;;;;;;;;;;;;;19.88;33.67;97977.97;10449628;28;2127;-49
2023/12/16 09:32:06;;;;;;;;;;;;;;;19.90;33.50;97978.56;10448760;28;2064;-52
2023/12/16 09:37:06;;;;;;;;;;;;;;;19.90;33.64;97987.28;10448294;28;2135;-51
2023/12/16 09:42:06;;;;;;;;;;;;;;;19.93;33.50;97988.63;10453098;28;4861;-53
2023/12/16 09:47:11;;;;;;;;;;;;;;;19.95;33.59;97994.50;10453235;28;2119;-51
2023/12/16 09:52:11;;;;;;;;;;;;;;;19.97;33.74;97993.25;10452904;28;1976;-51
2023/12/16 09:57:11;;;;;;;;;;;;;;;20.01;33.55;97991.03;10456294;28;2303;-50
2023/12/16 10:02:25;;;;;;;;;;;;;;;20.04;33.57;97982.69;10452529;28;2078;-49
2023/12/16 10:07:25;;;;;;;;;;;;;;;20.07;33.81;97977.78;10448631;28;1988;-46
2023/12/16 10:12:31;;;;;;;;;;;;;;;20.08;33.83;97968.06;10448165;28;2067;-48
2023/12/16 10:17:31;;;;;;;;;;;;;;;20.10;33.52;97974.72;10448773;28;2126;-53
2023/12/16 10:22:32;;;;;;;;;;;;;;;20.14;33.99;97972.47;10449184;28;2035;-51
2023/12/16 10:27:32;;;;;;;;;;;;;;;20.18;33.89;97969.19;10451352;28;2007;-50
2023/12/16 10:32:33;;;;;;;;;;;;;;;20.22;34.08;97951.94;10447796;28;2120;-50
2023/12/16 10:37:33;;;;;;;;;;;;;;;20.24;34.37;97951.72;10454228;28;2519;-52
2023/12/16 10:42:33;;;;;;;;;;;;;;;20.27;34.61;97951.31;10456041;28;4905;-49
2023/12/16 10:47:33;;;;;;;;;;;;;;;20.32;34.49;97950.66;10455581;28;2064;-49
2023/12/16 10:52:34;;;;;;;;;;;;;;;20.35;34.93;97947.56;10483473;28;2162;-51
2023/12/16 10:57:39;;;;;;;;;;;;;;;20.39;34.87;97946.09;10457371;28;1985;-53
2023/12/16 11:03:02;;;;;;;;;;;;;;;20.43;34.68;97955.97;10455109;28;2016;-54
2023/12/16 11:08:03;;;;;;;;;;;;;;;20.45;35.23;97943.41;10449166;28;2127;-48
2023/12/16 11:13:03;;;;;;;;;;;;;;;20.48;35.39;97940.34;10448817;28;2278;-48
2023/12/16 11:18:22;;;;;;;;;;;;;;;20.52;35.75;97922.25;10445985;28;2089;-49
2023/12/16 11:23:22;;;;;;;;;;;;;;;20.55;35.79;97911.25;10442162;28;2135;-50
2023/12/16 11:28:25;;;;;;;;;;;;;;;20.55;35.44;97890.19;10448370;28;2097;-51
2023/12/16 11:33:44;;;;;;;;;;;;;;;20.50;36.21;97885.59;10450886;28;2088;-50
2023/12/16 11:38:46;;;;;;;;;;;;;;;20.54;35.73;97899.94;10449255;28;2127;-50
2023/12/16 11:43:47;;;;;;;;;;;;;;;20.50;35.74;97880.31;10451812;28;4953;-52
2023/12/16 11:48:47;;;;;;;;;;;;;;;20.56;35.14;97904.97;10452182;28;2103;-49
2023/12/16 11:53:47;;;;;;;;;;;;;;;20.57;35.10;97896.84;10451866;28;2088;-52
2023/12/16 11:58:47;;;;;;;;;;;;;;;20.52;35.66;97874.81;10451932;28;2019;-52
2023/12/16 12:03:48;;;;;;;;;;;;;;;20.49;35.82;97865.53;10452309;28;2319;-49
2023/12/16 12:08:50;;;;;;;;;;;;;;;20.55;35.53;97859.38;10451542;28;2005;-48
2023/12/16 12:13:52;;;;;;;;;;;;;;;20.55;35.62;97858.56;10451814;28;2094;-52
2023/12/16 12:18:52;;;;;;;;;;;;;;;20.53;35.69;97858.78;10449829;28;2136;-50
2023/12/16 12:23:52;;;;;;;;;;;;;;;20.54;35.51;97863.03;10453103;28;2005;-51
2023/12/16 12:28:59;;;;;;;;;;;;;;;20.59;34.74;97857.91;10449177;28;2490;-48
2023/12/16 12:33:59;;;;;;;;;;;;;;;20.55;35.32;97846.19;10450179;28;1961;-51
2023/12/16 12:39:00;;;;;;;;;;;;;;;20.56;34.89;97850.44;10448575;28;2147;-52
2023/12/16 12:44:07;;;;;;;;;;;;;;;20.56;35.38;97854.91;10451572;28;4909;-49
2023/12/16 12:49:08;;;;;;;;;;;;;;;20.56;35.25;97850.44;10449024;28;2002;-52
2023/12/16 12:54:08;;;;;;;;;;;;;;;20.60;36.71;97840.25;10455617;28;2072;-50
2023/12/16 12:59:08;;;;;;;;;;;;;;;20.75;37.06;97838.03;10442642;28;2032;-49
2023/12/16 13:04:09;;;;;;;;;;;;;;;20.75;37.65;97819.59;10444960;28;2134;-46
2023/12/16 13:09:10;;;;;;;;;;;;;;;20.73;37.15;97806.59;10445973;28;2202;-51
2023/12/16 13:14:10;;;;;;;;;;;;;;;20.70;37.68;97801.81;10447707;28;1969;-51
2023/12/16 13:19:10;;;;;;;;;;;;;;;20.74;37.57;97799.50;10450177;28;2096;-50
2023/12/16 13:24:12;;;;;;;;;;;;;;;20.76;38.06;97792.19;10450313;28;2398;-50
2023/12/16 13:29:12;;;;;;;;;;;;;;;20.68;37.74;97798.59;10450361;28;2087;-50
2023/12/16 13:34:12;;;;;;;;;;;;;;;20.63;38.63;97802.94;10443726;28;2143;-50
2023/12/16 13:39:13;;;;;;;;;;;;;;;20.52;38.92;97816.88;10447641;28;2451;-52
2023/12/16 13:44:13;;;;;;;;;;;;;;;20.48;38.20;97815.72;10449147;28;4962;-51
2023/12/16 13:49:13;;;;;;;;;;;;;;;20.39;39.25;97791.50;10448004;28;1951;-47
2023/12/16 13:54:14;;;;;;;;;;;;;;;20.35;40.66;97800.06;10456199;28;1995;-50
2023/12/16 13:59:14;;;;;;;;;;;;;;;20.30;39.46;97800.72;10448085;28;2169;-49
2023/12/16 14:04:14;;;;;;;;;;;;;;;20.26;40.61;97812.72;10447192;28;2099;-48
2023/12/16 14:09:14;;;;;;;;;;;;;;;20.24;39.57;97812.97;10450418;28;2449;-49
2023/12/16 14:14:15;;;;;;;;;;;;;;;20.18;39.59;97802.47;10455006;28;2289;-51
2023/12/16 14:19:15;;;;;;;;;;;;;;;20.16;41.09;97801.88;10457080;28;2339;-53
2023/12/16 14:24:15;;;;;;;;;;;;;;;20.10;41.06;97792.25;10456952;28;2249;-47
2023/12/16 14:29:16;;;;;;;;;;;;;;;20.08;40.64;97789.03;10456306;28;2245;-50
2023/12/16 14:34:18;;;;;;;;;;;;;;;20.04;40.56;97782.59;10456962;28;2104;-51
2023/12/16 14:39:18;;;;;;;;;;;;;;;20.02;39.45;97788.09;10458246;28;2278;-50
2023/12/16 14:44:18;;;;;;;;;;;;;;;19.97;39.59;97787.16;10456735;28;4898;-46
2023/12/16 14:49:22;;;;;;;;;;;;;;;20.04;38.67;97783.41;10457112;28;2314;-47
2023/12/16 14:54:23;;;;;;;;;;;;;;;20.05;39.20;97779.75;10459166;28;2268;-52
2023/12/16 14:59:24;;;;;;;;;;;;;;;20.12;39.26;97780.47;10453651;28;2140;-47
2023/12/16 15:04:25;;;;;;;;;;;;;;;20.20;38.54;97776.75;10454992;28;2123;-49
2023/12/16 15:09:25;;;;;;;;;;;;;;;20.21;39.04;97787.09;10454297;28;2068;-48
2023/12/16 15:14:25;;;;;;;;;;;;;;;20.27;38.82;97777.47;10454938;28;2221;-51
2023/12/16 15:19:26;;;;;;;;;;;;;;;20.23;39.78;97771.88;10450357;28;2127;-48
2023/12/16 15:24:26;;;;;;;;;;;;;;;20.20;39.23;97774.13;10453383;28;2019;-51
2023/12/16 15:29:27;;;;;;;;;;;;;;;20.21;39.31;97771.28;10455828;28;2091;-49
2023/12/16 15:34:27;;;;;;;;;;;;;;;20.22;39.54;97770.25;10454233;28;2016;-48
2023/12/16 15:39:29;;;;;;;;;;;;;;;20.24;39.23;97772.66;10455703;28;1952;-47
2023/12/16 15:44:29;;;;;;;;;;;;;;;20.27;39.08;97782.75;10453826;28;4972;-49
2023/12/16 15:49:29;;;;;;;;;;;;;;;20.24;39.21;97785.81;10452060;28;2019;-50
2023/12/16 15:54:30;;;;;;;;;;;;;;;20.29;39.11;97778.06;10455671;28;2056;-51
2023/12/16 15:59:30;;;;;;;;;;;;;;;20.27;38.56;97777.47;10455035;28;2231;-48
2023/12/16 16:04:30;;;;;;;;;;;;;;;20.28;38.85;97773.81;10452988;28;2024;-51
2023/12/16 16:09:33;;;;;;;;;;;;;;;20.34;38.30;97770.28;10453476;28;1989;-48
2023/12/16 16:14:33;;;;;;;;;;;;;;;20.45;38.26;97769.53;10450211;28;2260;-51
2023/12/16 16:19:33;;;;;;;;;;;;;;;20.54;38.85;97768.19;10451477;28;2156;-51
2023/12/16 16:24:34;;;;;;;;;;;;;;;20.55;39.29;97764.53;10450289;28;1975;-50
2023/12/16 16:29:39;;;;;;;;;;;;;;;20.60;38.43;97766.47;10448961;28;2158;-50
2023/12/16 16:34:40;;;;;;;;;;;;;;;20.66;37.77;97760.31;10452374;28;2025;-51
2023/12/16 16:39:40;;;;;;;;;;;;;;;20.72;37.67;97754.13;10465967;28;2475;-49
2023/12/16 16:44:40;;;;;;;;;;;;;;;20.71;38.16;97755.97;10477322;28;1787;-54
2023/12/16 16:49:41;;;;;;;;;;;;;;;20.77;38.45;97757.69;10477888;28;1682;-51
2023/12/16 16:54:42;;;;;;;;;;;;;;;20.83;37.67;97756.81;10483523;28;1476;-50
2023/12/16 16:59:43;;;;;;;;;;;;;;;20.84;38.15;97762.88;10478149;28;2080;-50
2023/12/16 17:04:44;;;;;;;;;;;;;;;20.87;38.25;97757.97;10478135;28;2246;-54
2023/12/16 17:09:44;;;;;;;;;;;;;;;20.90;37.64;97748.78;10477119;28;1558;-47
2023/12/16 17:14:44;;;;;;;;;;;;;;;20.89;38.07;97748.00;10474664;28;1469;-51
2023/12/16 17:19:45;;;;;;;;;;;;;;;20.91;37.89;97759.13;10475056;28;1972;-52
2023/12/16 17:24:45;;;;;;;;;;;;;;;20.89;37.42;97766.44;10460989;28;1784;-52
2023/12/16 17:29:45;;;;;;;;;;;;;;;20.95;37.44;97765.53;10486885;28;1444;-51
2023/12/16 17:34:46;;;;;;;;;;;;;;;20.96;37.80;97759.22;10482376;28;1512;-52
2023/12/16 17:39:46;;;;;;;;;;;;;;;20.98;37.68;97767.69;10465016;28;1910;-52
2023/12/16 17:44:46;;;;;;;;;;;;;;;21.01;37.21;97761.19;10479620;28;4946;-52
2023/12/16 17:49:47;;;;;;;;;;;;;;;20.97;37.74;97770.56;10480801;28;1461;-53
2023/12/16 17:54:47;;;;;;;;;;;;;;;20.96;38.05;97767.13;10477470;28;2232;-51
2023/12/16 17:59:47;;;;;;;;;;;;;;;21.02;37.04;97770.72;10476427;28;1921;-50
2023/12/16 18:04:48;;;;;;;;;;;;;;;21.03;37.47;97770.50;10479089;28;1612;-53
2023/12/16 18:09:48;;;;;;;;;;;;;;;21.00;37.75;97778.81;10481905;28;1611;-51
2023/12/16 18:14:48;;;;;;;;;;;;;;;20.99;37.29;97777.22;10481526;28;1482;-51
2023/12/16 18:19:48;;;;;;;;;;;;;;;21.01;37.44;97782.28;10484647;28;1973;-50
2023/12/16 18:24:49;;;;;;;;;;;;;;;21.08;37.59;97796.97;10494180;28;1465;-53
2023/12/16 18:29:49;;;;;;;;;;;;;;;21.04;36.79;97795.81;10480806;28;1444;-52
2023/12/16 18:34:49;;;;;;;;;;;;;;;20.95;37.46;97796.38;10483783;28;1429;-51
2023/12/16 18:39:49;;;;;;;;;;;;;;;21.05;35.99;97801.91;10458588;28;1973;-52
2023/12/16 18:44:50;;;;;;;;;;;;;;;21.12;36.52;97801.81;10491222;28;4909;-51
2023/12/16 18:49:50;;;;;;;;;;;;;;;21.03;36.45;97788.97;10482184;28;2276;-49
2023/12/16 18:54:50;;;;;;;;;;;;;;;21.00;36.50;97792.00;10477081;28;1470;-53
2023/12/16 18:59:50;;;;;;;;;;;;;;;21.02;36.68;97795.25;10487452;28;2006;-54
2023/12/16 19:04:51;;;;;;;;;;;;;;;21.05;36.21;97796.63;10487452;28;1853;-53
2023/12/16 19:09:51;;;;;;;;;;;;;;;21.05;36.41;97791.38;10483444;28;1505;-49
2023/12/16 19:14:51;;;;;;;;;;;;;;;21.02;36.09;97787.34;10475998;28;1475;-52
2023/12/16 19:19:51;;;;;;;;;;;;;;;21.10;35.70;97795.97;10488052;28;1942;-53
2023/12/16 19:24:52;;;;;;;;;;;;;;;20.99;37.19;97789.59;10453398;28;2204;-55
2023/12/16 19:29:52;;;;;;;;;;;;;;;20.98;36.83;97790.63;10453183;28;2067;-51
2023/12/16 19:34:52;;;;;;;;;;;;;;;20.99;36.24;97795.69;10464468;28;2342;-52
2023/12/16 19:39:53;;;;;;;;;;;;;;;20.93;36.55;97801.88;10453932;28;2217;-48
2023/12/16 19:44:53;;;;;;;;;;;;;;;20.92;36.73;97804.72;10454332;28;5096;-53
2023/12/16 19:49:53;;;;;;;;;;;;;;;20.95;36.90;97814.81;10454019;28;2023;-47
2023/12/16 19:54:53;;;;;;;;;;;;;;;20.95;36.35;97810.34;10451354;28;2031;-51
2023/12/16 19:59:54;;;;;;;;;;;;;;;20.94;36.52;97816.66;10452105;28;2046;-50
2023/12/16 20:04:54;;;;;;;;;;;;;;;20.85;36.03;97823.28;10436355;28;1928;-49
2023/12/16 20:09:54;;;;;;;;;;;;;;;20.87;36.04;97826.50;10456222;28;2109;-52
2023/12/16 20:14:56;;;;;;;;;;;;;;;20.79;36.67;97839.97;10450578;28;2456;-48
2023/12/16 20:19:56;;;;;;;;;;;;;;;20.71;36.66;97842.94;10452018;28;2210;-52
2023/12/16 20:24:56;;;;;;;;;;;;;;;20.64;36.62;97847.50;10445295;28;2276;-51
2023/12/16 20:29:56;;;;;;;;;;;;;;;20.62;36.55;97854.84;10444439;28;2097;-50
2023/12/16 20:34:57;;;;;;;;;;;;;;;20.61;37.05;97847.16;10445199;28;2312;-52
2023/12/16 20:45:16;;;;;;;;;;;;;;;20.56;37.07;97855.72;10449300;28;4997;-53
2023/12/16 20:50:16;;;;;;;;;;;;;;;20.53;36.37;97855.34;10449086;28;2018;-52
2023/12/16 20:55:17;;;;;;;;;;;;;;;20.52;36.45;97864.28;10448714;28;2079;-51
2023/12/16 21:00:18;;;;;;;;;;;;;;;20.51;38.04;97863.47;10446938;28;2069;-50
2023/12/16 21:05:18;;;;;;;;;;;;;;;20.52;36.88;97869.56;10446008;28;2242;-51
2023/12/16 21:10:19;;;;;;;;;;;;;;;20.50;37.25;97872.41;10450175;28;2161;-51
2023/12/16 21:15:19;;;;;;;;;;;;;;;20.46;37.75;97873.91;10443339;28;2133;-51
2023/12/16 21:20:19;;;;;;;;;;;;;;;20.45;36.88;97874.09;10448920;28;2162;-53
2023/12/16 21:25:19;;;;;;;;;;;;;;;20.42;36.73;97862.19;10425612;28;2314;-51
2023/12/16 21:30:23;;;;;;;;;;;;;;;20.37;37.97;97877.84;10445098;28;2137;-51
2023/12/16 21:35:24;;;;;;;;;;;;;;;20.36;36.84;97870.16;10428738;28;2253;-52
2023/12/16 21:40:24;;;;;;;;;;;;;;;20.32;38.69;97864.50;10444381;28;2181;-50
2023/12/16 21:45:25;;;;;;;;;;;;;;;20.32;37.41;97863.72;10443475;28;4637;-52
2023/12/16 21:50:25;;;;;;;;;;;;;;;20.26;37.60;97857.50;10428676;28;2122;-50
2023/12/16 21:55:28;;;;;;;;;;;;;;;20.24;37.72;97867.44;10442787;28;1980;-51
2023/12/16 22:00:28;;;;;;;;;;;;;;;20.22;36.04;97870.31;10446844;28;2315;-50
2023/12/16 22:05:28;;;;;;;;;;;;;;;20.20;36.13;97875.00;10445811;28;2071;-51
2023/12/16 22:10:28;;;;;;;;;;;;;;;20.17;36.32;97882.50;10450001;28;1961;-46
2023/12/16 22:15:29;;;;;;;;;;;;;;;20.13;35.79;97876.06;10446560;28;1947;-50
2023/12/16 22:20:29;;;;;;;;;;;;;;;20.10;35.64;97855.44;10444806;28;2343;-50
2023/12/16 22:25:29;;;;;;;;;;;;;;;20.08;35.52;97858.28;10439772;28;2314;-49
2023/12/16 22:30:29;;;;;;;;;;;;;;;20.05;35.19;97863.97;10454340;28;2088;-51
2023/12/16 22:35:30;;;;;;;;;;;;;;;20.02;35.80;97856.53;10453446;28;2256;-50
2023/12/16 22:40:30;;;;;;;;;;;;;;;20.00;36.32;97847.25;10431074;28;2180;-49
2023/12/16 22:45:30;;;;;;;;;;;;;;;19.97;36.30;97837.16;10455755;28;4913;-54
2023/12/16 22:50:30;;;;;;;;;;;;;;;19.95;35.37;97831.28;10454088;28;2273;-53
2023/12/16 22:55:32;;;;;;;;;;;;;;;19.92;35.35;97850.16;10453834;28;2116;-52
2023/12/16 23:00:35;;;;;;;;;;;;;;;19.91;35.03;97856.44;10455309;28;2066;-51
2023/12/16 23:05:35;;;;;;;;;;;;;;;19.90;35.51;97852.22;10459345;28;2015;-50
2023/12/16 23:10:35;;;;;;;;;;;;;;;19.85;35.95;97836.25;10454383;28;2116;-50
2023/12/16 23:15:35;;;;;;;;;;;;;;;19.83;36.08;97823.34;10451964;28;2049;-49
2023/12/16 23:20:36;;;;;;;;;;;;;;;19.81;35.59;97829.81;10451969;28;2022;-53
2023/12/16 23:25:36;;;;;;;;;;;;;;;19.78;35.49;97817.13;10454128;28;2109;-51
2023/12/16 23:30:36;;;;;;;;;;;;;;;19.76;35.80;97795.50;10451425;28;2340;-52
2023/12/16 23:35:37;;;;;;;;;;;;;;;19.74;35.57;97793.06;10454561;28;2109;-51
2023/12/16 23:40:37;;;;;;;;;;;;;;;19.72;35.43;97795.09;10453021;28;2196;-50
2023/12/16 23:45:37;;;;;;;;;;;;;;;19.69;35.84;97790.28;10452290;28;4913;-50
2023/12/16 23:50:37;;;;;;;;;;;;;;;19.67;36.45;97791.53;10456253;28;2103;-50
2023/12/16 23:55:38;;;;;;;;;;;;;;;19.66;35.55;97790.72;10453211;28;1921;-52
